Polarstern — DBLK — position and weather

sailwx.info

Track history (hours):
 
Tides and Currents Weather Stations Pressure Air Temp Water Temp Dewpoint Dewpoint Depression Visibility Wind Speed Wind Dir Waves Ship Positions

Oceanographic research ship Polarstern (Germany)

Detailed information on ship capabilities available from University of Delaware's Ocean Information Center and ARCUS's ALIAS (Arctic Logistics Information and Support) project.

Last reported at 2019-Apr-19 10:00 UTC. Time now 2019-Apr-19 10:36 UTC.
Position S 54°12' W 044°48'.

Length 117.9 m; beam 25 m; draft 10.7 m.

Type: Other ship. MMSI: 211202460.

Wind from 240 at 37 knots

Barometer 973.4 mb
Air temperature -0.4 ° C
Dewpoint -5.3 ° C
Water temperature 3.2 ° C

Date/timePositionNaut miles runAvg speedWind from/ knotsBaromVisibWave heightAir tempDewpointWater temp
2019-Apr-19 10:00S 54°12' W 044°48'1212.1 240 / 37973.4 -0.4-5.3 3.2
2019-Apr-19 09:00S 54°06' W 045°06'7 7.0 240 / 37973.610.8 -0.4-5.2 3.3
2019-Apr-19 08:00S 54°06' W 045°18'1212.2 240 / 35973.8 0.1-6.6 3.3
2019-Apr-19 07:00S 54°00' W 045°36'1110.6 250 / 37974.2 -0.1-6.8 3.3
2019-Apr-19 06:00S 54°00' W 045°54'1212.2 240 / 33974.7 -0.0-5.7 3.4
2019-Apr-19 05:00S 53°54' W 046°12'1110.6 240 / 35974.9 -0.4-7.9 3.7
2019-Apr-19 04:00S 53°54' W 046°30'1212.2 230 / 37974.7 -0.1-5.1 4.3
2019-Apr-19 03:00S 53°48' W 046°48'1110.6 230 / 31974.0 -0.1-5.9 4.3
2019-Apr-19 02:00S 53°48' W 047°06'1110.6 220 / 31974.1 0.2-6.0 4.2
2019-Apr-19 01:00S 53°48' W 047°24'9 9.3 220 / 29974.4 1.0-5.4 4.3
2019-Apr-19 00:00S 53°42' W 047°36'1110.7 220 / 27973.8 0.5-3.1 4.9
2019-Apr-18 23:00S 53°42' W 047°54'1110.7 220 / 29973.3 0.7-2.8 5.0
2019-Apr-18 22:00S 53°42' W 048°12'1110.7 240 / 29972.6 0.4-2.3 5.2
2019-Apr-18 21:00S 53°42' W 048°30'1110.7 250 / 33971.910.8 2.1-3.7 5.2
2019-Apr-18 20:00S 53°42' W 048°48'1110.7 250 / 33971.3 2.0-5.5 5.2
2019-Apr-18 19:00S 53°42' W 049°06'1110.7 240 / 31971.4 1.5-3.1 5.3
2019-Apr-18 18:00S 53°42' W 049°24'1110.7 250 / 35971.327.0 2.5-4.5 5.3
2019-Apr-18 17:00S 53°42' W 049°42'1110.7 250 / 35970.3 2.5-3.0 5.5
2019-Apr-18 16:00S 53°42' W 050°00'1110.7 240 / 33970.8 2.8-2.4 5.3
2019-Apr-18 15:00S 53°42' W 050°18'1110.7 240 / 35969.810.8 2.5-2.2 4.1
2019-Apr-18 14:00S 53°42' W 050°36'7 7.1 250 / 39969.6 3.3 1.2 3.9
2019-Apr-18 13:00S 53°42' W 050°48'1110.7 310 / 41969.2 4.4 2.7 5.3
2019-Apr-18 12:00S 53°42' W 051°06'1110.7 320 / 41969.6 1.1 3.6 3.0 5.4
2019-Apr-18 11:00S 53°42' W 051°24'1110.7 320 / 29971.7 4.2 2.0 5.5
2019-Apr-18 10:00S 53°42' W 051°42'1110.7 320 / 31975.2 4.5 1.0 4.9
2019-Apr-18 09:00S 53°42' W 052°00'1110.7 310 / 33977.410.8 4.6 0.3 5.2
2019-Apr-18 08:00S 53°42' W 052°18'1110.7 300 / 33979.1 4.3-0.6 5.1
2019-Apr-18 07:00S 53°42' W 052°36'1110.7 290 / 29980.6 4.0-2.1 5.2
2019-Apr-18 06:00S 53°42' W 052°54'1110.7 280 / 29981.4 4.7-3.2 4.7
2019-Apr-18 05:00S 53°42' W 053°12'1110.7 280 / 25982.4 3.7 0.7 4.9
2019-Apr-18 04:00S 53°42' W 053°30'1110.7 270 / 29982.6 4.5 0.4 4.7
2019-Apr-18 03:00S 53°42' W 053°48'1212.2 280 / 25983.0 4.4-0.4 5.1
2019-Apr-18 02:00S 53°36' W 054°06'1110.7 260 / 27983.5 4.4-1.3 5.0
2019-Apr-18 01:00S 53°36' W 054°24'1110.7 240 / 19983.9 3.3-0.0 5.1
2019-Apr-18 00:00S 53°36' W 054°42'1110.7 250 / 21984.4 3.7-1.7 5.8
2019-Apr-17 23:00S 53°36' W 055°00'7 7.1 240 / 23984.7 3.8-2.3 5.7
2019-Apr-17 22:00S 53°36' W 055°12'1110.7 240 / 25984.3 4.1-2.6 5.6
2019-Apr-17 21:00S 53°36' W 055°30'1110.7 220 / 21984.010.8 4.0-1.9 5.4
2019-Apr-17 20:00S 53°36' W 055°48'1110.7 220 / 25983.6 4.2-2.2 5.4
2019-Apr-17 19:00S 53°36' W 056°06'1110.7 210 / 25983.1 4.3-1.6 5.6
2019-Apr-17 18:00S 53°36' W 056°24'1110.7 200 / 25982.6 5.4 3.7 0.2 6.0
2019-Apr-17 17:00S 53°36' W 056°42'1110.7 210 / 23982.4 4.2 0.6 5.8
2019-Apr-17 16:00S 53°36' W 057°00'1110.7 220 / 27982.5 4.3 0.8 5.8
2019-Apr-17 15:00S 53°36' W 057°18'1110.7 220 / 25982.810.8 4.9-0.1 5.9
2019-Apr-17 14:00S 53°36' W 057°36'1110.7 230 / 21982.6 5.2 2.0 6.2
2019-Apr-17 13:00S 53°36' W 057°54'1110.7 230 / 21982.1 5.6 1.6 6.3
2019-Apr-17 12:00S 53°36' W 058°12'1110.7 240 / 19981.610.8 5.8 2.5 6.2
2019-Apr-17 11:00S 53°36' W 058°30'1110.7 260 / 16981.2 6.2 1.9 6.1
2019-Apr-17 10:00S 53°36' W 058°48'1212.3 280 / 21981.4 6.2 2.2 6.2
2019-Apr-17 09:00S 53°30' W 059°06'1110.7 290 / 19981.6 5.4 5.8 3.7 6.6
2019-Apr-17 08:00S 53°30' W 059°24'1110.7 300 / 19981.9 4.7 2.7 6.8
2019-Apr-17 07:00S 53°30' W 059°42'1110.7 270 / 21982.5 3.5 1.8 6.8
2019-Apr-17 06:00S 53°30' W 060°00'1110.7 310 / 29982.5 7.0 4.4 6.8
2019-Apr-17 05:00S 53°30' W 060°18'1212.3 320 / 25983.2 6.9 4.5 6.8
2019-Apr-17 04:00S 53°24' W 060°36'1110.7 310 / 21984.3 6.8 4.0 6.7
2019-Apr-17 03:00S 53°24' W 060°54'1414.3 310 / 21985.1 6.7 3.4 6.8
2019-Apr-17 02:00S 53°24' W 061°18'1110.7 310 / 19986.0 6.7 3.6 6.6
2019-Apr-17 01:00S 53°24' W 061°36'1212.3 300 / 23987.0 6.9 2.8 6.7
2019-Apr-17 00:00S 53°18' W 061°54'1110.8 300 / 23987.2 7.0 2.6 6.6
2019-Apr-16 23:00S 53°18' W 062°12'1110.8 300 / 21988.0 7.0 2.3 6.7
2019-Apr-16 22:00S 53°18' W 062°30'1110.8 290 / 19988.1 6.9 2.7 6.6
2019-Apr-16 21:00S 53°18' W 062°48'1212.3 290 / 16988.410.8 8.1 3.1 6.9
2019-Apr-16 20:00S 53°12' W 063°06'7 7.2 290 / 23989.0 7.5 1.5 6.6
2019-Apr-16 19:00S 53°12' W 063°18'7 7.2 290 / 23989.1 6.9 2.9 7.2
2019-Apr-16 18:00S 53°12' W 063°30'1110.8 300 / 23990.0 5.4 6.8 3.1 7.4
2019-Apr-16 17:00S 53°12' W 063°48'1212.4 280 / 21990.7 7.2 2.3 7.5
2019-Apr-16 16:00S 53°06' W 064°06'1110.8 300 / 25991.7 7.3 2.6 7.6
2019-Apr-16 15:00S 53°06' W 064°24'1110.8 280 / 19992.010.8 8.0 2.7 7.5
2019-Apr-16 14:00S 53°06' W 064°42'1110.8 290 / 19992.6 7.4 2.6 7.5
2019-Apr-16 13:00S 53°06' W 065°00'1615.6 290 / 21992.8 7.2 2.1 7.4
2019-Apr-16 12:00S 53°00' W 065°24'1110.8 280 / 19992.910.8 7.2 1.6 7.6
2019-Apr-16 11:00S 53°00' W 065°42'1110.8 290 / 21992.7 7.4 1.1 8.0
2019-Apr-16 10:00S 53°00' W 066°00'7 7.2 280 / 19993.0 7.3 0.7 8.3
2019-Apr-16 09:00S 53°00' W 066°12'1110.8 270 / 21993.010.8 7.1 1.1 8.7
2019-Apr-16 08:00S 53°00' W 066°30'1212.4 270 / 25993.6 7.0 1.0 9.2
2019-Apr-16 07:00S 52°54' W 066°48'7 7.2 260 / 27993.8 6.9 1.8 9.3
2019-Apr-16 06:00S 52°54' W 067°00'1110.9 260 / 27994.3 6.6 2.2 9.2
2019-Apr-16 05:00S 52°54' W 067°18'1110.9 260 / 25994.4 6.8 2.1 9.0
2019-Apr-16 04:00S 52°54' W 067°36'1212.4 270 / 29994.5 6.7 2.8 9.0
2019-Apr-16 03:00S 52°48' W 067°54'1212.4 260 / 29994.7 6.8 2.9 9.0
2019-Apr-16 02:00S 52°42' W 068°12'1414.0 260 / 27995.0 7.0 2.6 8.9
2019-Apr-16 01:00S 52°30' W 068°24'1312.5 270 / 31995.1 7.8 3.2 9.0
2019-Apr-16 00:00S 52°24' W 068°42'1514.6 260 / 23995.4 8.2 2.6 8.9
2019-Apr-15 23:00S 52°24' W 069°06'1111.0 270 / 21995.2 8.5 2.6 8.6
2019-Apr-15 22:00S 52°24' W 069°24'9 9.5 260 / 17994.4 8.2 2.8 8.4
2019-Apr-15 21:00S 52°30' W 069°36'1918.9 260 / 17994.410.8 8.1 3.6 8.4
2019-Apr-15 20:00S 52°42' W 070°00'1514.5 270 / 29994.7 8.6 3.2 8.4
2019-Apr-15 19:00S 52°42' W 070°24'1818.4 260 / 31994.8 8.3 3.9 8.3
2019-Apr-15 18:00S 53°00' W 070°30'1616.1 260 / 19993.6 5.4 8.8 5.0 8.3
2019-Apr-15 17:00S 53°12' W 070°48'4 3.6 300 / 19992.8 8.8 5.1 8.3
2019-Apr-15 16:00S 53°12' W 070°54'0 0.0 300 / 27992.9 10.5 3.1 8.4
2019-Apr-15 15:00S 53°12' W 070°54'0 0.0 310 / 16993.527.0 10.4 3.7 8.3
2019-Apr-15 14:00S 53°12' W 070°54'0 0.0 290 / 23993.9 10.6 3.4 8.3
2019-Apr-15 13:00S 53°12' W 070°54'0 0.0 300 / 23993.6 10.2 3.5 8.3
2019-Apr-15 12:00S 53°12' W 070°54'0 0.0 330 / 10994.5 8.4 3.8 8.4
2019-Apr-15 11:00S 53°12' W 070°54'0 0.0 010 / 8995.5 8.6 3.6 8.4
2019-Apr-15 10:00S 53°12' W 070°54'0 0.0 320 / 10995.9 8.6 2.8 8.4
2019-Apr-15 09:00S 53°12' W 070°54'0 0.0 340 / 4996.1 9.6 2.6 8.4
2019-Apr-15 08:00S 53°12' W 070°54'0 0.0 310 / 6996.0 9.3 3.3 8.3
2019-Apr-15 07:00S 53°12' W 070°54'7 7.0 330 / 12996.5 8.6 3.4 8.3
2019-Apr-15 06:00S 53°06' W 070°48'1212.0 320 / 12996.6 7.8 4.8 8.3
2019-Apr-15 05:00S 52°54' W 070°48'0 0.0 280 / 16996.5 8.8 3.8 8.2
2019-Apr-15 04:00S 52°54' W 070°48'0 0.0 300 / 25996.3 9.0 5.6 8.2
2019-Apr-15 03:00S 52°54' W 070°48'0 0.0 310 / 21996.3 8.6 5.5 8.0
2019-Apr-15 02:00S 52°54' W 070°48'0 0.0 300 / 21995.9 7.7 4.7 8.0
2019-Apr-15 01:00S 52°54' W 070°48'0 0.0 310 / 19996.2 7.1 4.5 7.9
2019-Apr-15 00:00S 52°54' W 070°48'0 0.0 310 / 17996.4 7.2 4.5 7.9
2019-Apr-14 23:00S 52°54' W 070°48'0 0.0 300 / 17996.3 6.7 3.6 8.1
2019-Apr-14 22:00S 52°54' W 070°48'0 0.0 310 / 16996.2 6.5 3.4 8.2
2019-Apr-14 21:00S 52°54' W 070°48'0 0.0 310 / 16996.3 6.7 3.3 8.2
2019-Apr-14 20:00S 52°54' W 070°48'0 0.0 300 / 23996.2 6.3 2.8 8.2
2019-Apr-14 19:00S 52°54' W 070°48'0 0.0 300 / 21996.2 6.2 1.7 8.2
2019-Apr-14 18:00S 52°54' W 070°48'0 0.0 300 / 19996.5 5.8 1.2 8.3
2019-Apr-14 17:00S 52°54' W 070°48'0 0.0 300 / 25996.6 5.6 0.4 8.3
2019-Apr-14 16:00S 52°54' W 070°48'0 0.0 290 / 17996.7 7.2-1.4 8.2
2019-Apr-14 15:00S 52°54' W 070°48'0 0.0 290 / 17996.7 5.3-0.4 8.2
2019-Apr-14 14:00S 52°54' W 070°48'7 7.0 290 / 21996.3 5.0 1.4 8.0
2019-Apr-14 13:00S 53°00' W 070°42'7 7.0 260 / 14995.7 3.7-0.5 8.3
2019-Apr-14 12:00S 53°06' W 070°48'4 3.6 260 / 14994.6 3.5-1.6 8.3
2019-Apr-14 11:00S 53°06' W 070°54'0 0.0 260 / 12994.2 2.9-3.7 8.4
2019-Apr-14 10:00S 53°06' W 070°54'0 0.0 260 / 10994.0 2.8-3.3 8.4
2019-Apr-14 09:00S 53°06' W 070°54'0 0.0 250 / 6993.0 2.8-2.2 8.3
2019-Apr-14 08:00S 53°06' W 070°54'0 0.0 220 / 6992.0 3.2-2.5 8.3
2019-Apr-14 07:00S 53°06' W 070°54'0 0.0 250 / 16990.6 3.5-2.2 8.3
2019-Apr-14 06:00S 53°06' W 070°54'0 0.0 230 / 6989.7 3.6-1.4 8.4
2019-Apr-14 05:00S 53°06' W 070°54'0 0.0 250 / 12988.3 3.7-0.5 8.4
2019-Apr-14 04:00S 53°06' W 070°54'0 0.0 250 / 14987.6 3.8-0.5 8.4
2019-Apr-14 03:00S 53°06' W 070°54'0 0.0 240 / 4987.1 3.7-0.0 8.5
2019-Apr-14 02:00S 53°06' W 070°54'0 0.0 260 / 8986.3 4.0 0.1 8.5
2019-Apr-14 01:00S 53°06' W 070°54'0 0.0 260 / 6985.6 3.5 0.4 8.5
2019-Apr-14 00:00S 53°06' W 070°54'0 0.0 310 / 10984.8 4.5-1.4 8.5
2019-Apr-13 23:00S 53°06' W 070°54'0 0.0 310 / 2984.3 5.2-1.4 8.5
2019-Apr-13 22:00S 53°06' W 070°54'0 0.0 280 / 6983.5 5.6-2.5 8.5
2019-Apr-13 21:00S 53°06' W 070°54'0 0.0 300 / 6982.4 5.8-2.7 8.4
2019-Apr-13 20:00S 53°06' W 070°54'0 0.0 230 / 8981.7 6.9-2.8 8.4
2019-Apr-13 19:00S 53°06' W 070°54'0 0.0 220 / 8980.7 6.7-3.0 8.4
2019-Apr-13 18:00S 53°06' W 070°54'0 0.0 230 / 10979.7 7.1-1.4 8.4
2019-Apr-13 17:00S 53°06' W 070°54'0 0.0 250 / 21978.9 6.5-0.4 8.4
2019-Apr-13 16:00S 53°06' W 070°54'0 0.0 280 / 16978.6 5.7 0.1 8.4
2019-Apr-13 15:00S 53°06' W 070°54'0 0.0 290 / 14978.2 5.5 0.5 8.5
2019-Apr-13 14:00S 53°06' W 070°54'0 0.0 330 / 10978.1 3.9 1.6 8.5
2019-Apr-13 13:00S 53°06' W 070°54'0 0.0 310 / 17977.8 2.9 0.7 8.5
2019-Apr-13 12:00S 53°06' W 070°54'0 0.0 340 / 10977.6 3.7 0.7 8.4
2019-Apr-13 11:00S 53°06' W 070°54'4 3.6 330 / 8977.1 4.5 0.8 8.4
2019-Apr-13 10:00S 53°06' W 070°48'7 7.0 280 / 17976.3 4.9-0.3 8.3
2019-Apr-13 09:00S 53°12' W 070°54'0 0.0 280 / 14976.2 4.1-0.1 8.4
2019-Apr-13 08:00S 53°12' W 070°54'0 0.0 280 / 17975.6 4.6 0.6 8.4
2019-Apr-13 07:00S 53°12' W 070°54'0 0.0 290 / 23975.2 4.8 0.4 8.5
2019-Apr-13 06:00S 53°12' W 070°54'0 0.0 280 / 21975.0 5.6 1.2 8.5
2019-Apr-13 05:00S 53°12' W 070°54'0 0.0 280 / 25973.8 5.8 1.0 8.5
2019-Apr-13 04:00S 53°12' W 070°54'0 0.0 290 / 29972.0 6.3 1.8 8.4
2019-Apr-13 03:00S 53°12' W 070°54'0 0.0 290 / 25971.3 6.8 2.1 8.4
2019-Apr-13 02:00S 53°12' W 070°54'0 0.0 280 / 27970.5 6.9 1.4 8.4
2019-Apr-13 01:00S 53°12' W 070°54'0 0.0 290 / 25968.4 6.4 1.4 8.4
2019-Apr-13 00:00S 53°12' W 070°54'0 0.0 260 / 17967.7 6.4 0.8 8.4
2019-Apr-12 23:00S 53°12' W 070°54'0 0.0 270 / 41962.3 6.1 1.0 8.4
2019-Apr-12 22:00S 53°12' W 070°54'0 0.0 270 / 49958.2 6.4 1.9 8.5
2019-Apr-12 21:00S 53°12' W 070°54'0 0.0 300 / 37957.9 10.2 5.3 8.5
2019-Apr-12 20:00S 53°12' W 070°54'0 0.0 340 / 10959.1 10.5 7.5 8.5
2019-Apr-12 19:00S 53°12' W 070°54'0 0.0 030 / 16962.3 9.7 6.9 8.5
2019-Apr-12 18:00S 53°12' W 070°54'0 0.0 020 / 19965.1 9.4 6.6 8.5
2019-Apr-12 17:00S 53°12' W 070°54'0 0.0 040 / 29967.8 8.7 7.0 8.5
2019-Apr-12 16:00S 53°12' W 070°54'0 0.0 050 / 31971.0 8.4 7.2 8.5
2019-Apr-12 15:00S 53°12' W 070°54'0 0.0 050 / 25975.2 7.9 6.6 8.5
2019-Apr-12 14:00S 53°12' W 070°54'0 0.0 030 / 21979.6 7.7 6.2 8.4
2019-Apr-12 13:00S 53°12' W 070°54'0 0.0 030 / 25982.8 8.3 5.5 8.4
2019-Apr-12 12:00S 53°12' W 070°54'0 0.0 050 / 21986.4 8.0 5.5 8.4
2019-Apr-12 11:00S 53°12' W 070°54'0 0.0 040 / 19989.7 7.8 4.5 8.4
2019-Apr-12 10:00S 53°12' W 070°54'0 0.0 020 / 19992.4 7.8 2.8 8.4
2019-Apr-12 09:00S 53°12' W 070°54'0 0.0 010 / 23995.4 7.5 2.1 8.4
2019-Apr-12 08:00S 53°12' W 070°54'0 0.0 010 / 19998.3 7.4 1.6 8.4
2019-Apr-12 07:00S 53°12' W 070°54'0 0.0 340 / 41001.1 5.8 2.3 8.5
2019-Apr-12 06:00S 53°12' W 070°54'0 0.0 030 / 61003.2 5.6 1.9 8.5
2019-Apr-12 05:00S 53°12' W 070°54'0 0.0 340 / 81005.3 5.6 0.2 8.5
2019-Apr-12 04:00S 53°12' W 070°54'0 0.0 360 / 61007.3 5.8 0.7 8.6
2019-Apr-12 03:00S 53°12' W 070°54'0 0.0 010 / 161008.6 5.9 1.0 8.5
2019-Apr-12 02:00S 53°12' W 070°54'0 0.0 020 / 101010.1 7.1 1.0 8.5
2019-Apr-12 01:00S 53°12' W 070°54'7 7.0 360 / 61010.7 7.7 1.2 8.5
2019-Apr-12 00:00S 53°06' W 070°48'4 3.6 340 / 61011.6 8.2 1.1 8.5
2019-Apr-11 23:00S 53°06' W 070°54'0 0.0 310 / 101012.6 9.2 0.2 8.7
2019-Apr-11 22:00S 53°06' W 070°54'0 0.0 290 / 21012.8 9.3 1.4 8.8
2019-Apr-11 21:00S 53°06' W 070°54'0 0.0 280 / 141013.0 9.8 0.9 8.8
2019-Apr-11 20:00S 53°06' W 070°54'0 0.0 270 / 121013.3 10.1 1.2 8.8
2019-Apr-11 19:00S 53°06' W 070°54'0 0.0 290 / 101013.1 10.6 0.1 8.7
2019-Apr-11 18:00S 53°06' W 070°54'0 0.0 270 / 81013.6 10.7-0.4 8.7
2019-Apr-11 17:00S 53°06' W 070°54'0 0.0 280 / 61014.2 10.0-1.0 8.7
2019-Apr-11 16:00S 53°06' W 070°54'0 0.0 280 / 121014.5 9.6-0.9 8.7
2019-Apr-11 15:00S 53°06' W 070°54'0 0.0 280 / 121014.1 9.0-0.8 8.7
2019-Apr-11 14:00S 53°06' W 070°54'0 0.0 280 / 141013.9 8.7 0.5 8.7
2019-Apr-11 13:00S 53°06' W 070°54'0 0.0 270 / 171013.2 8.0 0.7 8.6
2019-Apr-11 12:00S 53°06' W 070°54'0 0.0 280 / 141012.2 7.0 0.7 8.6
2019-Apr-11 11:00S 53°06' W 070°54'0 0.0 260 / 121011.6 7.2 1.8 8.6
2019-Apr-11 10:00S 53°06' W 070°54'0 0.0 260 / 101010.5 9.3 2.9 8.7
2019-Apr-11 09:00S 53°06' W 070°54'0 0.0 270 / 161008.5 9.8 5.3 8.8
2019-Apr-11 08:00S 53°06' W 070°54'0 0.0 330 / 121007.7 11.1 5.8 8.7
2019-Apr-11 07:00S 53°06' W 070°54'0 0.0 350 / 121007.0 10.8 3.9 8.6
2019-Apr-11 06:00S 53°06' W 070°54'0 0.0 020 / 121006.6 10.4 3.5 8.6
2019-Apr-11 05:00S 53°06' W 070°54'0 0.0 010 / 141006.8 10.1 3.9 8.6
2019-Apr-11 04:00S 53°06' W 070°54'0 0.0 030 / 61007.1 9.9 3.4 8.6
2019-Apr-11 03:00S 53°06' W 070°54'0 0.0 010 / 141007.9 9.1 5.7 8.6
2019-Apr-11 02:00S 53°06' W 070°54'0 0.0 010 / 141008.8 8.7 4.3 8.7
2019-Apr-11 01:00S 53°06' W 070°54'0 0.0 360 / 141009.1 9.2 3.2 8.7
2019-Apr-11 00:00S 53°06' W 070°54'6 6.0 340 / 101010.2 9.9 3.9 8.6
2019-Apr-10 23:00S 53°12' W 070°54'0 0.0 320 / 141010.6 10.5 2.7 8.4
2019-Apr-10 22:00S 53°12' W 070°54'0 0.0 340 / 171011.2 10.6 3.0 8.6
2019-Apr-10 21:00S 53°12' W 070°54'0 0.0 010 / 121011.9 10.6 3.4 8.6
2019-Apr-10 20:00S 53°12' W 070°54'0 0.0 350 / 81013.0 10.4 4.2 8.5
2019-Apr-10 19:00S 53°12' W 070°54'0 0.0 340 / 161013.8 9.9 3.0 8.5
2019-Apr-10 18:00S 53°12' W 070°54'0 0.0 350 / 161014.9 9.7 2.9 8.5
2019-Apr-10 17:00S 53°12' W 070°54'0 0.0 020 / 191016.1 7.9 4.0 8.5
2019-Apr-10 16:00S 53°12' W 070°54'0 0.0 020 / 141016.9 8.9 3.0 8.4
2019-Apr-10 15:00S 53°12' W 070°54'0 0.0 360 / 141017.6 7.6 2.3 8.3
2019-Apr-10 14:00S 53°12' W 070°54'0 0.0 010 / 121018.2 7.4 2.4 8.2
2019-Apr-10 13:00S 53°12' W 070°54'0 0.0 350 / 121019.1 6.2 2.5 8.3
2019-Apr-10 12:00S 53°12' W 070°54'0 0.0 340 / 101018.8 7.0 2.6 8.3
2019-Apr-10 11:00S 53°12' W 070°54'0 0.0 310 / 41019.1 5.5 2.3 8.3
2019-Apr-10 10:00S 53°12' W 070°54'0 0.0 070 / 21019.1 6.4 2.5 8.4
2019-Apr-10 09:00S 53°12' W 070°54'0 0.0 310 / 41019.1 6.6 2.8 8.5
2019-Apr-10 08:00S 53°12' W 070°54'0 0.0 210 / 41019.2 7.1 2.2 8.4
2019-Apr-10 07:00S 53°12' W 070°54'0 0.0 290 / 21019.6 6.6 2.6 8.4
2019-Apr-10 06:00S 53°12' W 070°54'0 0.0 250 / 41019.9 7.2 1.8 8.5
2019-Apr-10 05:00S 53°12' W 070°54'0 0.0 250 / 61019.5 7.2 0.7 8.4
2019-Apr-10 04:00S 53°12' W 070°54'0 0.0 280 / 81019.6 6.5 1.0 8.4
2019-Apr-10 03:00S 53°12' W 070°54'0 0.0 280 / 121019.9 6.0 1.1 8.4
2019-Apr-10 02:00S 53°12' W 070°54'0 0.0 230 / 101019.4 7.2 1.0 8.4
2019-Apr-10 01:00S 53°12' W 070°54'0 0.0 280 / 101019.0 6.9 1.5 8.4
2019-Apr-10 00:00S 53°12' W 070°54'0 0.0 240 / 161018.2 7.8 1.0 8.6
2019-Apr-09 23:00S 53°12' W 070°54'0 0.0 240 / 101017.3 7.8 1.4 8.6
2019-Apr-09 22:00S 53°12' W 070°54'0 0.0 200 / 101016.3 8.8 5.3 8.6
2019-Apr-09 21:00S 53°12' W 070°54'0 0.0 170 / 61015.2 8.1 6.0 8.6
2019-Apr-09 20:00S 53°12' W 070°54'0 0.0 180 / 41014.5 8.0 5.8 8.6
2019-Apr-09 19:00S 53°12' W 070°54'0 0.0 190 / 41013.8 8.2 5.1 8.6
2019-Apr-09 18:00S 53°12' W 070°54'0 0.0 170 / 61013.4 7.9 5.9 8.6
2019-Apr-09 17:00S 53°12' W 070°54'0 0.0 160 / 101012.8 7.6 5.5 8.6
2019-Apr-09 16:00S 53°12' W 070°54'0 0.0 180 / 121012.5 7.0 5.6 8.5
2019-Apr-09 15:00S 53°12' W 070°54'0 0.0 200 / 161011.7 6.7 5.3 8.5
2019-Apr-09 14:00S 53°12' W 070°54'0 0.0 190 / 191010.9 6.4 5.2 8.5
2019-Apr-09 13:00S 53°12' W 070°54'0 0.0 200 / 191010.0 6.1 5.5 8.5
2019-Apr-09 12:00S 53°12' W 070°54'0 0.0 200 / 211009.1 6.4 5.9 8.5
2019-Apr-09 11:00S 53°12' W 070°54'0 0.0 160 / 211008.2 7.2 6.4 8.5
2019-Apr-09 10:00S 53°12' W 070°54'   160 / 191007.4 7.4 6.8 8.5
Track history (hours):
 
Tides and Currents Weather Stations Pressure Air Temp Water Temp Dewpoint Dewpoint Depression Visibility Wind Speed Wind Dir Waves Ship Positions

Oceanographic research ship Polarstern (Germany)

Detailed information on ship capabilities available from University of Delaware's Ocean Information Center and ARCUS's ALIAS (Arctic Logistics Information and Support) project.

Last reported at 2019-Apr-19 10:00 UTC. Time now 2019-Apr-19 10:36 UTC.
Position S 54°12' W 044°48'.

Length 117.9 m; beam 25 m; draft 10.7 m.

Type: Other ship. MMSI: 211202460.

Wind from 240 at 37 knots

Barometer 973.4 mb
Air temperature -0.4 ° C
Dewpoint -5.3 ° C
Water temperature 3.2 ° C

Date/timePositionNaut miles runAvg speedWind from/ knotsBaromVisibWave heightAir tempDewpointWater temp
2019-Apr-19 10:00S 54°12' W 044°48'1212.1 240 / 37973.4 -0.4-5.3 3.2
2019-Apr-19 09:00S 54°06' W 045°06'7 7.0 240 / 37973.610.8 -0.4-5.2 3.3
2019-Apr-19 08:00S 54°06' W 045°18'1212.2 240 / 35973.8 0.1-6.6 3.3
2019-Apr-19 07:00S 54°00' W 045°36'1110.6 250 / 37974.2 -0.1-6.8 3.3
2019-Apr-19 06:00S 54°00' W 045°54'1212.2 240 / 33974.7 -0.0-5.7 3.4
2019-Apr-19 05:00S 53°54' W 046°12'1110.6 240 / 35974.9 -0.4-7.9 3.7
2019-Apr-19 04:00S 53°54' W 046°30'1212.2 230 / 37974.7 -0.1-5.1 4.3
2019-Apr-19 03:00S 53°48' W 046°48'1110.6 230 / 31974.0 -0.1-5.9 4.3
2019-Apr-19 02:00S 53°48' W 047°06'1110.6 220 / 31974.1 0.2-6.0 4.2
2019-Apr-19 01:00S 53°48' W 047°24'9 9.3 220 / 29974.4 1.0-5.4 4.3
2019-Apr-19 00:00S 53°42' W 047°36'1110.7 220 / 27973.8 0.5-3.1 4.9
2019-Apr-18 23:00S 53°42' W 047°54'1110.7 220 / 29973.3 0.7-2.8 5.0
2019-Apr-18 22:00S 53°42' W 048°12'1110.7 240 / 29972.6 0.4-2.3 5.2
2019-Apr-18 21:00S 53°42' W 048°30'1110.7 250 / 33971.910.8 2.1-3.7 5.2
2019-Apr-18 20:00S 53°42' W 048°48'1110.7 250 / 33971.3 2.0-5.5 5.2
2019-Apr-18 19:00S 53°42' W 049°06'1110.7 240 / 31971.4 1.5-3.1 5.3
2019-Apr-18 18:00S 53°42' W 049°24'1110.7 250 / 35971.327.0 2.5-4.5 5.3
2019-Apr-18 17:00S 53°42' W 049°42'1110.7 250 / 35970.3 2.5-3.0 5.5
2019-Apr-18 16:00S 53°42' W 050°00'1110.7 240 / 33970.8 2.8-2.4 5.3
2019-Apr-18 15:00S 53°42' W 050°18'1110.7 240 / 35969.810.8 2.5-2.2 4.1
2019-Apr-18 14:00S 53°42' W 050°36'7 7.1 250 / 39969.6 3.3 1.2 3.9
2019-Apr-18 13:00S 53°42' W 050°48'1110.7 310 / 41969.2 4.4 2.7 5.3
2019-Apr-18 12:00S 53°42' W 051°06'1110.7 320 / 41969.6 1.1 3.6 3.0 5.4
2019-Apr-18 11:00S 53°42' W 051°24'1110.7 320 / 29971.7 4.2 2.0 5.5
2019-Apr-18 10:00S 53°42' W 051°42'1110.7 320 / 31975.2 4.5 1.0 4.9
2019-Apr-18 09:00S 53°42' W 052°00'1110.7 310 / 33977.410.8 4.6 0.3 5.2
2019-Apr-18 08:00S 53°42' W 052°18'1110.7 300 / 33979.1 4.3-0.6 5.1
2019-Apr-18 07:00S 53°42' W 052°36'1110.7 290 / 29980.6 4.0-2.1 5.2
2019-Apr-18 06:00S 53°42' W 052°54'1110.7 280 / 29981.4 4.7-3.2 4.7
2019-Apr-18 05:00S 53°42' W 053°12'1110.7 280 / 25982.4 3.7 0.7 4.9
2019-Apr-18 04:00S 53°42' W 053°30'1110.7 270 / 29982.6 4.5 0.4 4.7
2019-Apr-18 03:00S 53°42' W 053°48'1212.2 280 / 25983.0 4.4-0.4 5.1
2019-Apr-18 02:00S 53°36' W 054°06'1110.7 260 / 27983.5 4.4-1.3 5.0
2019-Apr-18 01:00S 53°36' W 054°24'1110.7 240 / 19983.9 3.3-0.0 5.1
2019-Apr-18 00:00S 53°36' W 054°42'1110.7 250 / 21984.4 3.7-1.7 5.8
2019-Apr-17 23:00S 53°36' W 055°00'7 7.1 240 / 23984.7 3.8-2.3 5.7
2019-Apr-17 22:00S 53°36' W 055°12'1110.7 240 / 25984.3 4.1-2.6 5.6
2019-Apr-17 21:00S 53°36' W 055°30'1110.7 220 / 21984.010.8 4.0-1.9 5.4
2019-Apr-17 20:00S 53°36' W 055°48'1110.7 220 / 25983.6 4.2-2.2 5.4
2019-Apr-17 19:00S 53°36' W 056°06'1110.7 210 / 25983.1 4.3-1.6 5.6
2019-Apr-17 18:00S 53°36' W 056°24'1110.7 200 / 25982.6 5.4 3.7 0.2 6.0
2019-Apr-17 17:00S 53°36' W 056°42'1110.7 210 / 23982.4 4.2 0.6 5.8
2019-Apr-17 16:00S 53°36' W 057°00'1110.7 220 / 27982.5 4.3 0.8 5.8
2019-Apr-17 15:00S 53°36' W 057°18'1110.7 220 / 25982.810.8 4.9-0.1 5.9
2019-Apr-17 14:00S 53°36' W 057°36'1110.7 230 / 21982.6 5.2 2.0 6.2
2019-Apr-17 13:00S 53°36' W 057°54'1110.7 230 / 21982.1 5.6 1.6 6.3
2019-Apr-17 12:00S 53°36' W 058°12'1110.7 240 / 19981.610.8 5.8 2.5 6.2
2019-Apr-17 11:00S 53°36' W 058°30'1110.7 260 / 16981.2 6.2 1.9 6.1
2019-Apr-17 10:00S 53°36' W 058°48'1212.3 280 / 21981.4 6.2 2.2 6.2
2019-Apr-17 09:00S 53°30' W 059°06'1110.7 290 / 19981.6 5.4 5.8 3.7 6.6
2019-Apr-17 08:00S 53°30' W 059°24'1110.7 300 / 19981.9 4.7 2.7 6.8
2019-Apr-17 07:00S 53°30' W 059°42'1110.7 270 / 21982.5 3.5 1.8 6.8
2019-Apr-17 06:00S 53°30' W 060°00'1110.7 310 / 29982.5 7.0 4.4 6.8
2019-Apr-17 05:00S 53°30' W 060°18'1212.3 320 / 25983.2 6.9 4.5 6.8
2019-Apr-17 04:00S 53°24' W 060°36'1110.7 310 / 21984.3 6.8 4.0 6.7
2019-Apr-17 03:00S 53°24' W 060°54'1414.3 310 / 21985.1 6.7 3.4 6.8
2019-Apr-17 02:00S 53°24' W 061°18'1110.7 310 / 19986.0 6.7 3.6 6.6
2019-Apr-17 01:00S 53°24' W 061°36'1212.3 300 / 23987.0 6.9 2.8 6.7
2019-Apr-17 00:00S 53°18' W 061°54'1110.8 300 / 23987.2 7.0 2.6 6.6
2019-Apr-16 23:00S 53°18' W 062°12'1110.8 300 / 21988.0 7.0 2.3 6.7
2019-Apr-16 22:00S 53°18' W 062°30'1110.8 290 / 19988.1 6.9 2.7 6.6
2019-Apr-16 21:00S 53°18' W 062°48'1212.3 290 / 16988.410.8 8.1 3.1 6.9
2019-Apr-16 20:00S 53°12' W 063°06'7 7.2 290 / 23989.0 7.5 1.5 6.6
2019-Apr-16 19:00S 53°12' W 063°18'7 7.2 290 / 23989.1 6.9 2.9 7.2
2019-Apr-16 18:00S 53°12' W 063°30'1110.8 300 / 23990.0 5.4 6.8 3.1 7.4
2019-Apr-16 17:00S 53°12' W 063°48'1212.4 280 / 21990.7 7.2 2.3 7.5
2019-Apr-16 16:00S 53°06' W 064°06'1110.8 300 / 25991.7 7.3 2.6 7.6
2019-Apr-16 15:00S 53°06' W 064°24'1110.8 280 / 19992.010.8 8.0 2.7 7.5
2019-Apr-16 14:00S 53°06' W 064°42'1110.8 290 / 19992.6 7.4 2.6 7.5
2019-Apr-16 13:00S 53°06' W 065°00'1615.6 290 / 21992.8 7.2 2.1 7.4
2019-Apr-16 12:00S 53°00' W 065°24'1110.8 280 / 19992.910.8 7.2 1.6 7.6
2019-Apr-16 11:00S 53°00' W 065°42'1110.8 290 / 21992.7 7.4 1.1 8.0
2019-Apr-16 10:00S 53°00' W 066°00'7 7.2 280 / 19993.0 7.3 0.7 8.3
2019-Apr-16 09:00S 53°00' W 066°12'1110.8 270 / 21993.010.8 7.1 1.1 8.7
2019-Apr-16 08:00S 53°00' W 066°30'1212.4 270 / 25993.6 7.0 1.0 9.2
2019-Apr-16 07:00S 52°54' W 066°48'7 7.2 260 / 27993.8 6.9 1.8 9.3
2019-Apr-16 06:00S 52°54' W 067°00'1110.9 260 / 27994.3 6.6 2.2 9.2
2019-Apr-16 05:00S 52°54' W 067°18'1110.9 260 / 25994.4 6.8 2.1 9.0
2019-Apr-16 04:00S 52°54' W 067°36'1212.4 270 / 29994.5 6.7 2.8 9.0
2019-Apr-16 03:00S 52°48' W 067°54'1212.4 260 / 29994.7 6.8 2.9 9.0
2019-Apr-16 02:00S 52°42' W 068°12'1414.0 260 / 27995.0 7.0 2.6 8.9
2019-Apr-16 01:00S 52°30' W 068°24'1312.5 270 / 31995.1 7.8 3.2 9.0
2019-Apr-16 00:00S 52°24' W 068°42'1514.6 260 / 23995.4 8.2 2.6 8.9
2019-Apr-15 23:00S 52°24' W 069°06'1111.0 270 / 21995.2 8.5 2.6 8.6
2019-Apr-15 22:00S 52°24' W 069°24'9 9.5 260 / 17994.4 8.2 2.8 8.4
2019-Apr-15 21:00S 52°30' W 069°36'1918.9 260 / 17994.410.8 8.1 3.6 8.4
2019-Apr-15 20:00S 52°42' W 070°00'1514.5 270 / 29994.7 8.6 3.2 8.4
2019-Apr-15 19:00S 52°42' W 070°24'1818.4 260 / 31994.8 8.3 3.9 8.3
2019-Apr-15 18:00S 53°00' W 070°30'1616.1 260 / 19993.6 5.4 8.8 5.0 8.3
2019-Apr-15 17:00S 53°12' W 070°48'4 3.6 300 / 19992.8 8.8 5.1 8.3
2019-Apr-15 16:00S 53°12' W 070°54'0 0.0 300 / 27992.9 10.5 3.1 8.4
2019-Apr-15 15:00S 53°12' W 070°54'0 0.0 310 / 16993.527.0 10.4 3.7 8.3
2019-Apr-15 14:00S 53°12' W 070°54'0 0.0 290 / 23993.9 10.6 3.4 8.3
2019-Apr-15 13:00S 53°12' W 070°54'0 0.0 300 / 23993.6 10.2 3.5 8.3
2019-Apr-15 12:00S 53°12' W 070°54'0 0.0 330 / 10994.5 8.4 3.8 8.4
2019-Apr-15 11:00S 53°12' W 070°54'0 0.0 010 / 8995.5 8.6 3.6 8.4
2019-Apr-15 10:00S 53°12' W 070°54'0 0.0 320 / 10995.9 8.6 2.8 8.4
2019-Apr-15 09:00S 53°12' W 070°54'0 0.0 340 / 4996.1 9.6 2.6 8.4
2019-Apr-15 08:00S 53°12' W 070°54'0 0.0 310 / 6996.0 9.3 3.3 8.3
2019-Apr-15 07:00S 53°12' W 070°54'7 7.0 330 / 12996.5 8.6 3.4 8.3
2019-Apr-15 06:00S 53°06' W 070°48'1212.0 320 / 12996.6 7.8 4.8 8.3
2019-Apr-15 05:00S 52°54' W 070°48'0 0.0 280 / 16996.5 8.8 3.8 8.2
2019-Apr-15 04:00S 52°54' W 070°48'0 0.0 300 / 25996.3 9.0 5.6 8.2
2019-Apr-15 03:00S 52°54' W 070°48'0 0.0 310 / 21996.3 8.6 5.5 8.0
2019-Apr-15 02:00S 52°54' W 070°48'0 0.0 300 / 21995.9 7.7 4.7 8.0
2019-Apr-15 01:00S 52°54' W 070°48'0 0.0 310 / 19996.2 7.1 4.5 7.9
2019-Apr-15 00:00S 52°54' W 070°48'0 0.0 310 / 17996.4 7.2 4.5 7.9
2019-Apr-14 23:00S 52°54' W 070°48'0 0.0 300 / 17996.3 6.7 3.6 8.1
2019-Apr-14 22:00S 52°54' W 070°48'0 0.0 310 / 16996.2 6.5 3.4 8.2
2019-Apr-14 21:00S 52°54' W 070°48'0 0.0 310 / 16996.3 6.7 3.3 8.2
2019-Apr-14 20:00S 52°54' W 070°48'0 0.0 300 / 23996.2 6.3 2.8 8.2
2019-Apr-14 19:00S 52°54' W 070°48'0 0.0 300 / 21996.2 6.2 1.7 8.2
2019-Apr-14 18:00S 52°54' W 070°48'0 0.0 300 / 19996.5 5.8 1.2 8.3
2019-Apr-14 17:00S 52°54' W 070°48'0 0.0 300 / 25996.6 5.6 0.4 8.3
2019-Apr-14 16:00S 52°54' W 070°48'0 0.0 290 / 17996.7 7.2-1.4 8.2
2019-Apr-14 15:00S 52°54' W 070°48'0 0.0 290 / 17996.7 5.3-0.4 8.2
2019-Apr-14 14:00S 52°54' W 070°48'7 7.0 290 / 21996.3 5.0 1.4 8.0
2019-Apr-14 13:00S 53°00' W 070°42'7 7.0 260 / 14995.7 3.7-0.5 8.3
2019-Apr-14 12:00S 53°06' W 070°48'4 3.6 260 / 14994.6 3.5-1.6 8.3
2019-Apr-14 11:00S 53°06' W 070°54'0 0.0 260 / 12994.2 2.9-3.7 8.4
2019-Apr-14 10:00S 53°06' W 070°54'0 0.0 260 / 10994.0 2.8-3.3 8.4
2019-Apr-14 09:00S 53°06' W 070°54'0 0.0 250 / 6993.0 2.8-2.2 8.3
2019-Apr-14 08:00S 53°06' W 070°54'0 0.0 220 / 6992.0 3.2-2.5 8.3
2019-Apr-14 07:00S 53°06' W 070°54'0 0.0 250 / 16990.6 3.5-2.2 8.3
2019-Apr-14 06:00S 53°06' W 070°54'0 0.0 230 / 6989.7 3.6-1.4 8.4
2019-Apr-14 05:00S 53°06' W 070°54'0 0.0 250 / 12988.3 3.7-0.5 8.4
2019-Apr-14 04:00S 53°06' W 070°54'0 0.0 250 / 14987.6 3.8-0.5 8.4
2019-Apr-14 03:00S 53°06' W 070°54'0 0.0 240 / 4987.1 3.7-0.0 8.5
2019-Apr-14 02:00S 53°06' W 070°54'0 0.0 260 / 8986.3 4.0 0.1 8.5
2019-Apr-14 01:00S 53°06' W 070°54'0 0.0 260 / 6985.6 3.5 0.4 8.5
2019-Apr-14 00:00S 53°06' W 070°54'0 0.0 310 / 10984.8 4.5-1.4 8.5
2019-Apr-13 23:00S 53°06' W 070°54'0 0.0 310 / 2984.3 5.2-1.4 8.5
2019-Apr-13 22:00S 53°06' W 070°54'0 0.0 280 / 6983.5 5.6-2.5 8.5
2019-Apr-13 21:00S 53°06' W 070°54'0 0.0 300 / 6982.4 5.8-2.7 8.4
2019-Apr-13 20:00S 53°06' W 070°54'0 0.0 230 / 8981.7 6.9-2.8 8.4
2019-Apr-13 19:00S 53°06' W 070°54'0 0.0 220 / 8980.7 6.7-3.0 8.4
2019-Apr-13 18:00S 53°06' W 070°54'0 0.0 230 / 10979.7 7.1-1.4 8.4
2019-Apr-13 17:00S 53°06' W 070°54'0 0.0 250 / 21978.9 6.5-0.4 8.4
2019-Apr-13 16:00S 53°06' W 070°54'0 0.0 280 / 16978.6 5.7 0.1 8.4
2019-Apr-13 15:00S 53°06' W 070°54'0 0.0 290 / 14978.2 5.5 0.5 8.5
2019-Apr-13 14:00S 53°06' W 070°54'0 0.0 330 / 10978.1 3.9 1.6 8.5
2019-Apr-13 13:00S 53°06' W 070°54'0 0.0 310 / 17977.8 2.9 0.7 8.5
2019-Apr-13 12:00S 53°06' W 070°54'0 0.0 340 / 10977.6 3.7 0.7 8.4
2019-Apr-13 11:00S 53°06' W 070°54'4 3.6 330 / 8977.1 4.5 0.8 8.4
2019-Apr-13 10:00S 53°06' W 070°48'7 7.0 280 / 17976.3 4.9-0.3 8.3
2019-Apr-13 09:00S 53°12' W 070°54'0 0.0 280 / 14976.2 4.1-0.1 8.4
2019-Apr-13 08:00S 53°12' W 070°54'0 0.0 280 / 17975.6 4.6 0.6 8.4
2019-Apr-13 07:00S 53°12' W 070°54'0 0.0 290 / 23975.2 4.8 0.4 8.5
2019-Apr-13 06:00S 53°12' W 070°54'0 0.0 280 / 21975.0 5.6 1.2 8.5
2019-Apr-13 05:00S 53°12' W 070°54'0 0.0 280 / 25973.8 5.8 1.0 8.5
2019-Apr-13 04:00S 53°12' W 070°54'0 0.0 290 / 29972.0 6.3 1.8 8.4
2019-Apr-13 03:00S 53°12' W 070°54'0 0.0 290 / 25971.3 6.8 2.1 8.4
2019-Apr-13 02:00S 53°12' W 070°54'0 0.0 280 / 27970.5 6.9 1.4 8.4
2019-Apr-13 01:00S 53°12' W 070°54'0 0.0 290 / 25968.4 6.4 1.4 8.4
2019-Apr-13 00:00S 53°12' W 070°54'0 0.0 260 / 17967.7 6.4 0.8 8.4
2019-Apr-12 23:00S 53°12' W 070°54'0 0.0 270 / 41962.3 6.1 1.0 8.4
2019-Apr-12 22:00S 53°12' W 070°54'0 0.0 270 / 49958.2 6.4 1.9 8.5
2019-Apr-12 21:00S 53°12' W 070°54'0 0.0 300 / 37957.9 10.2 5.3 8.5
2019-Apr-12 20:00S 53°12' W 070°54'0 0.0 340 / 10959.1 10.5 7.5 8.5
2019-Apr-12 19:00S 53°12' W 070°54'0 0.0 030 / 16962.3 9.7 6.9 8.5
2019-Apr-12 18:00S 53°12' W 070°54'0 0.0 020 / 19965.1 9.4 6.6 8.5
2019-Apr-12 17:00S 53°12' W 070°54'0 0.0 040 / 29967.8 8.7 7.0 8.5
2019-Apr-12 16:00S 53°12' W 070°54'0 0.0 050 / 31971.0 8.4 7.2 8.5
2019-Apr-12 15:00S 53°12' W 070°54'0 0.0 050 / 25975.2 7.9 6.6 8.5
2019-Apr-12 14:00S 53°12' W 070°54'0 0.0 030 / 21979.6 7.7 6.2 8.4
2019-Apr-12 13:00S 53°12' W 070°54'0 0.0 030 / 25982.8 8.3 5.5 8.4
2019-Apr-12 12:00S 53°12' W 070°54'0 0.0 050 / 21986.4 8.0 5.5 8.4
2019-Apr-12 11:00S 53°12' W 070°54'0 0.0 040 / 19989.7 7.8 4.5 8.4
2019-Apr-12 10:00S 53°12' W 070°54'0 0.0 020 / 19992.4 7.8 2.8 8.4
2019-Apr-12 09:00S 53°12' W 070°54'0 0.0 010 / 23995.4 7.5 2.1 8.4
2019-Apr-12 08:00S 53°12' W 070°54'0 0.0 010 / 19998.3 7.4 1.6 8.4
2019-Apr-12 07:00S 53°12' W 070°54'0 0.0 340 / 41001.1 5.8 2.3 8.5
2019-Apr-12 06:00S 53°12' W 070°54'0 0.0 030 / 61003.2 5.6 1.9 8.5
2019-Apr-12 05:00S 53°12' W 070°54'0 0.0 340 / 81005.3 5.6 0.2 8.5
2019-Apr-12 04:00S 53°12' W 070°54'0 0.0 360 / 61007.3 5.8 0.7 8.6
2019-Apr-12 03:00S 53°12' W 070°54'0 0.0 010 / 161008.6 5.9 1.0 8.5
2019-Apr-12 02:00S 53°12' W 070°54'0 0.0 020 / 101010.1 7.1 1.0 8.5
2019-Apr-12 01:00S 53°12' W 070°54'7 7.0 360 / 61010.7 7.7 1.2 8.5
2019-Apr-12 00:00S 53°06' W 070°48'4 3.6 340 / 61011.6 8.2 1.1 8.5
2019-Apr-11 23:00S 53°06' W 070°54'0 0.0 310 / 101012.6 9.2 0.2 8.7
2019-Apr-11 22:00S 53°06' W 070°54'0 0.0 290 / 21012.8 9.3 1.4 8.8
2019-Apr-11 21:00S 53°06' W 070°54'0 0.0 280 / 141013.0 9.8 0.9 8.8
2019-Apr-11 20:00S 53°06' W 070°54'0 0.0 270 / 121013.3 10.1 1.2 8.8
2019-Apr-11 19:00S 53°06' W 070°54'0 0.0 290 / 101013.1 10.6 0.1 8.7
2019-Apr-11 18:00S 53°06' W 070°54'0 0.0 270 / 81013.6 10.7-0.4 8.7
2019-Apr-11 17:00S 53°06' W 070°54'0 0.0 280 / 61014.2 10.0-1.0 8.7
2019-Apr-11 16:00S 53°06' W 070°54'0 0.0 280 / 121014.5 9.6-0.9 8.7
2019-Apr-11 15:00S 53°06' W 070°54'0 0.0 280 / 121014.1 9.0-0.8 8.7
2019-Apr-11 14:00S 53°06' W 070°54'0 0.0 280 / 141013.9 8.7 0.5 8.7
2019-Apr-11 13:00S 53°06' W 070°54'0 0.0 270 / 171013.2 8.0 0.7 8.6
2019-Apr-11 12:00S 53°06' W 070°54'0 0.0 280 / 141012.2 7.0 0.7 8.6
2019-Apr-11 11:00S 53°06' W 070°54'0 0.0 260 / 121011.6 7.2 1.8 8.6
2019-Apr-11 10:00S 53°06' W 070°54'0 0.0 260 / 101010.5 9.3 2.9 8.7
2019-Apr-11 09:00S 53°06' W 070°54'0 0.0 270 / 161008.5 9.8 5.3 8.8
2019-Apr-11 08:00S 53°06' W 070°54'0 0.0 330 / 121007.7 11.1 5.8 8.7
2019-Apr-11 07:00S 53°06' W 070°54'0 0.0 350 / 121007.0 10.8 3.9 8.6
2019-Apr-11 06:00S 53°06' W 070°54'0 0.0 020 / 121006.6 10.4 3.5 8.6
2019-Apr-11 05:00S 53°06' W 070°54'0 0.0 010 / 141006.8 10.1 3.9 8.6
2019-Apr-11 04:00S 53°06' W 070°54'0 0.0 030 / 61007.1 9.9 3.4 8.6
2019-Apr-11 03:00S 53°06' W 070°54'0 0.0 010 / 141007.9 9.1 5.7 8.6
2019-Apr-11 02:00S 53°06' W 070°54'0 0.0 010 / 141008.8 8.7 4.3 8.7
2019-Apr-11 01:00S 53°06' W 070°54'0 0.0 360 / 141009.1 9.2 3.2 8.7
2019-Apr-11 00:00S 53°06' W 070°54'6 6.0 340 / 101010.2 9.9 3.9 8.6
2019-Apr-10 23:00S 53°12' W 070°54'0 0.0 320 / 141010.6 10.5 2.7 8.4
2019-Apr-10 22:00S 53°12' W 070°54'0 0.0 340 / 171011.2 10.6 3.0 8.6
2019-Apr-10 21:00S 53°12' W 070°54'0 0.0 010 / 121011.9 10.6 3.4 8.6
2019-Apr-10 20:00S 53°12' W 070°54'0 0.0 350 / 81013.0 10.4 4.2 8.5
2019-Apr-10 19:00S 53°12' W 070°54'0 0.0 340 / 161013.8 9.9 3.0 8.5
2019-Apr-10 18:00S 53°12' W 070°54'0 0.0 350 / 161014.9 9.7 2.9 8.5
2019-Apr-10 17:00S 53°12' W 070°54'0 0.0 020 / 191016.1 7.9 4.0 8.5
2019-Apr-10 16:00S 53°12' W 070°54'0 0.0 020 / 141016.9 8.9 3.0 8.4
2019-Apr-10 15:00S 53°12' W 070°54'0 0.0 360 / 141017.6 7.6 2.3 8.3
2019-Apr-10 14:00S 53°12' W 070°54'0 0.0 010 / 121018.2 7.4 2.4 8.2
2019-Apr-10 13:00S 53°12' W 070°54'0 0.0 350 / 121019.1 6.2 2.5 8.3
2019-Apr-10 12:00S 53°12' W 070°54'0 0.0 340 / 101018.8 7.0 2.6 8.3
2019-Apr-10 11:00S 53°12' W 070°54'0 0.0 310 / 41019.1 5.5 2.3 8.3
2019-Apr-10 10:00S 53°12' W 070°54'0 0.0 070 / 21019.1 6.4 2.5 8.4
2019-Apr-10 09:00S 53°12' W 070°54'0 0.0 310 / 41019.1 6.6 2.8 8.5
2019-Apr-10 08:00S 53°12' W 070°54'0 0.0 210 / 41019.2 7.1 2.2 8.4
2019-Apr-10 07:00S 53°12' W 070°54'0 0.0 290 / 21019.6 6.6 2.6 8.4
2019-Apr-10 06:00S 53°12' W 070°54'0 0.0 250 / 41019.9 7.2 1.8 8.5
2019-Apr-10 05:00S 53°12' W 070°54'0 0.0 250 / 61019.5 7.2 0.7 8.4
2019-Apr-10 04:00S 53°12' W 070°54'0 0.0 280 / 81019.6 6.5 1.0 8.4
2019-Apr-10 03:00S 53°12' W 070°54'0 0.0 280 / 121019.9 6.0 1.1 8.4
2019-Apr-10 02:00S 53°12' W 070°54'0 0.0 230 / 101019.4 7.2 1.0 8.4
2019-Apr-10 01:00S 53°12' W 070°54'0 0.0 280 / 101019.0 6.9 1.5 8.4
2019-Apr-10 00:00S 53°12' W 070°54'0 0.0 240 / 161018.2 7.8 1.0 8.6
2019-Apr-09 23:00S 53°12' W 070°54'0 0.0 240 / 101017.3 7.8 1.4 8.6
2019-Apr-09 22:00S 53°12' W 070°54'0 0.0 200 / 101016.3 8.8 5.3 8.6
2019-Apr-09 21:00S 53°12' W 070°54'0 0.0 170 / 61015.2 8.1 6.0 8.6
2019-Apr-09 20:00S 53°12' W 070°54'0 0.0 180 / 41014.5 8.0 5.8 8.6
2019-Apr-09 19:00S 53°12' W 070°54'0 0.0 190 / 41013.8 8.2 5.1 8.6
2019-Apr-09 18:00S 53°12' W 070°54'0 0.0 170 / 61013.4 7.9 5.9 8.6
2019-Apr-09 17:00S 53°12' W 070°54'0 0.0 160 / 101012.8 7.6 5.5 8.6
2019-Apr-09 16:00S 53°12' W 070°54'0 0.0 180 / 121012.5 7.0 5.6 8.5
2019-Apr-09 15:00S 53°12' W 070°54'0 0.0 200 / 161011.7 6.7 5.3 8.5
2019-Apr-09 14:00S 53°12' W 070°54'0 0.0 190 / 191010.9 6.4 5.2 8.5
2019-Apr-09 13:00S 53°12' W 070°54'0 0.0 200 / 191010.0 6.1 5.5 8.5
2019-Apr-09 12:00S 53°12' W 070°54'0 0.0 200 / 211009.1 6.4 5.9 8.5
2019-Apr-09 11:00S 53°12' W 070°54'0 0.0 160 / 211008.2 7.2 6.4 8.5
2019-Apr-09 10:00S 53°12' W 070°54'   160 / 191007.4 7.4 6.8 8.5

Dump ship's entire track history